sensor_id;sensor_type;location;lat;lon;timestamp;temperature;humidity
21592;DHT22;10958;50.892;3.992;2023-08-20T00:00:18;21.10;99.90
21592;DHT22;10958;50.892;3.992;2023-08-20T00:02:46;21.10;99.90
21592;DHT22;10958;50.892;3.992;2023-08-20T00:05:13;21.20;99.90
21592;DHT22;10958;50.892;3.992;2023-08-20T00:07:40;21.40;99.90
21592;DHT22;10958;50.892;3.992;2023-08-20T00:10:06;21.60;99.90
21592;DHT22;10958;50.892;3.992;2023-08-20T00:12:32;21.70;99.90
21592;DHT22;10958;50.892;3.992;2023-08-20T00:15:00;21.90;99.90
21592;DHT22;10958;50.892;3.992;2023-08-20T00:17:37;21.90;99.90
21592;DHT22;10958;50.892;3.992;2023-08-20T00:20:08;21.70;99.90
21592;DHT22;10958;50.892;3.992;2023-08-20T00:22:36;21.60;99.90
21592;DHT22;10958;50.892;3.992;2023-08-20T00:25:02;21.40;99.90
21592;DHT22;10958;50.892;3.992;2023-08-20T00:27:29;21.40;99.90
21592;DHT22;10958;50.892;3.992;2023-08-20T00:29:55;21.20;99.90
21592;DHT22;10958;50.892;3.992;2023-08-20T00:32:21;21.10;99.90
21592;DHT22;10958;50.892;3.992;2023-08-20T00:34:46;21.10;99.90
21592;DHT22;10958;50.892;3.992;2023-08-20T00:37:12;21.30;99.90
21592;DHT22;10958;50.892;3.992;2023-08-20T00:39:38;21.20;99.90
21592;DHT22;10958;50.892;3.992;2023-08-20T00:42:04;21.10;99.90
21592;DHT22;10958;50.892;3.992;2023-08-20T00:44:30;21.00;99.90
21592;DHT22;10958;50.892;3.992;2023-08-20T00:47:00;21.10;99.90
21592;DHT22;10958;50.892;3.992;2023-08-20T00:49:26;21.30;99.90
21592;DHT22;10958;50.892;3.992;2023-08-20T00:51:52;21.70;99.90
21592;DHT22;10958;50.892;3.992;2023-08-20T00:54:19;21.90;99.90
21592;DHT22;10958;50.892;3.992;2023-08-20T00:56:46;22.00;99.90
21592;DHT22;10958;50.892;3.992;2023-08-20T00:59:12;22.00;99.90
21592;DHT22;10958;50.892;3.992;2023-08-20T01:01:38;22.10;99.90
21592;DHT22;10958;50.892;3.992;2023-08-20T01:04:05;22.10;99.90
21592;DHT22;10958;50.892;3.992;2023-08-20T01:12:32;21.70;99.90
21592;DHT22;10958;50.892;3.992;2023-08-20T01:14:59;21.80;99.90
21592;DHT22;10958;50.892;3.992;2023-08-20T01:17:25;22.00;99.90
21592;DHT22;10958;50.892;3.992;2023-08-20T01:19:51;22.00;99.90
21592;DHT22;10958;50.892;3.992;2023-08-20T01:27:59;22.10;99.90
21592;DHT22;10958;50.892;3.992;2023-08-20T01:30:31;21.90;99.90
21592;DHT22;10958;50.892;3.992;2023-08-20T01:32:58;21.80;99.90
21592;DHT22;10958;50.892;3.992;2023-08-20T01:35:24;21.80;99.90
21592;DHT22;10958;50.892;3.992;2023-08-20T01:37:53;21.80;99.90
21592;DHT22;10958;50.892;3.992;2023-08-20T01:40:23;21.80;99.90
21592;DHT22;10958;50.892;3.992;2023-08-20T01:42:51;21.80;99.90
21592;DHT22;10958;50.892;3.992;2023-08-20T01:45:17;21.80;99.90
21592;DHT22;10958;50.892;3.992;2023-08-20T01:47:44;21.70;99.90
21592;DHT22;10958;50.892;3.992;2023-08-20T01:50:10;21.90;99.90
21592;DHT22;10958;50.892;3.992;2023-08-20T01:52:35;21.90;99.90
21592;DHT22;10958;50.892;3.992;2023-08-20T01:55:01;22.00;99.90
21592;DHT22;10958;50.892;3.992;2023-08-20T01:57:27;22.10;99.90
21592;DHT22;10958;50.892;3.992;2023-08-20T01:59:56;21.80;99.90
21592;DHT22;10958;50.892;3.992;2023-08-20T02:02:23;21.80;99.90
21592;DHT22;10958;50.892;3.992;2023-08-20T02:04:49;21.70;99.90
21592;DHT22;10958;50.892;3.992;2023-08-20T02:07:15;21.50;99.90
21592;DHT22;10958;50.892;3.992;2023-08-20T02:09:41;21.40;99.90
21592;DHT22;10958;50.892;3.992;2023-08-20T02:12:07;21.30;99.90
21592;DHT22;10958;50.892;3.992;2023-08-20T02:14:33;20.90;99.90
21592;DHT22;10958;50.892;3.992;2023-08-20T02:17:03;20.80;99.90
21592;DHT22;10958;50.892;3.992;2023-08-20T02:19:29;20.80;99.90
21592;DHT22;10958;50.892;3.992;2023-08-20T02:21:55;21.00;99.90
21592;DHT22;10958;50.892;3.992;2023-08-20T02:24:21;21.20;99.90
21592;DHT22;10958;50.892;3.992;2023-08-20T02:26:46;21.30;99.90
21592;DHT22;10958;50.892;3.992;2023-08-20T02:29:13;21.30;99.90
21592;DHT22;10958;50.892;3.992;2023-08-20T02:31:38;21.20;99.90
21592;DHT22;10958;50.892;3.992;2023-08-20T02:34:07;21.10;99.90
21592;DHT22;10958;50.892;3.992;2023-08-20T02:36:32;21.00;99.90
21592;DHT22;10958;50.892;3.992;2023-08-20T02:38:58;21.00;99.90
21592;DHT22;10958;50.892;3.992;2023-08-20T02:41:25;20.90;99.90
21592;DHT22;10958;50.892;3.992;2023-08-20T02:43:50;21.00;99.90
21592;DHT22;10958;50.892;3.992;2023-08-20T02:46:18;21.10;99.90
21592;DHT22;10958;50.892;3.992;2023-08-20T02:48:46;21.10;99.90
21592;DHT22;10958;50.892;3.992;2023-08-20T02:51:12;21.00;99.90
21592;DHT22;10958;50.892;3.992;2023-08-20T02:53:38;21.00;99.90
21592;DHT22;10958;50.892;3.992;2023-08-20T02:56:07;21.00;99.90
21592;DHT22;10958;50.892;3.992;2023-08-20T02:58:33;20.90;99.90
21592;DHT22;10958;50.892;3.992;2023-08-20T03:01:01;20.90;99.90
21592;DHT22;10958;50.892;3.992;2023-08-20T03:03:28;20.80;99.90
21592;DHT22;10958;50.892;3.992;2023-08-20T03:05:56;20.90;99.90
21592;DHT22;10958;50.892;3.992;2023-08-20T03:08:25;21.00;99.90
21592;DHT22;10958;50.892;3.992;2023-08-20T03:10:51;21.20;99.90
21592;DHT22;10958;50.892;3.992;2023-08-20T03:13:16;21.20;99.90
21592;DHT22;10958;50.892;3.992;2023-08-20T03:15:42;21.10;99.90
21592;DHT22;10958;50.892;3.992;2023-08-20T03:18:13;21.20;99.90
21592;DHT22;10958;50.892;3.992;2023-08-20T03:20:39;21.20;99.90
21592;DHT22;10958;50.892;3.992;2023-08-20T03:23:05;21.00;99.90
21592;DHT22;10958;50.892;3.992;2023-08-20T03:25:35;21.00;99.90
21592;DHT22;10958;50.892;3.992;2023-08-20T03:28:01;20.90;99.90
21592;DHT22;10958;50.892;3.992;2023-08-20T03:30:30;21.10;99.90
21592;DHT22;10958;50.892;3.992;2023-08-20T03:33:55;21.10;99.90
21592;DHT22;10958;50.892;3.992;2023-08-20T03:36:21;20.90;99.90
21592;DHT22;10958;50.892;3.992;2023-08-20T03:38:50;20.80;99.90
21592;DHT22;10958;50.892;3.992;2023-08-20T03:41:18;20.60;99.90
21592;DHT22;10958;50.892;3.992;2023-08-20T03:43:44;20.60;99.90
21592;DHT22;10958;50.892;3.992;2023-08-20T03:46:10;20.70;99.90
21592;DHT22;10958;50.892;3.992;2023-08-20T03:48:35;20.60;99.90
21592;DHT22;10958;50.892;3.992;2023-08-20T03:51:01;20.60;99.90
21592;DHT22;10958;50.892;3.992;2023-08-20T03:53:27;20.50;99.90
21592;DHT22;10958;50.892;3.992;2023-08-20T03:59:19;20.60;99.90
21592;DHT22;10958;50.892;3.992;2023-08-20T04:01:47;20.60;99.90
21592;DHT22;10958;50.892;3.992;2023-08-20T04:04:16;20.50;99.90
21592;DHT22;10958;50.892;3.992;2023-08-20T04:06:49;20.50;99.90
21592;DHT22;10958;50.892;3.992;2023-08-20T04:09:35;20.60;99.90
21592;DHT22;10958;50.892;3.992;2023-08-20T04:12:03;20.50;99.90
21592;DHT22;10958;50.892;3.992;2023-08-20T04:14:29;20.10;99.90
21592;DHT22;10958;50.892;3.992;2023-08-20T04:16:55;19.90;99.90
21592;DHT22;10958;50.892;3.992;2023-08-20T04:19:21;20.10;99.90
21592;DHT22;10958;50.892;3.992;2023-08-20T04:21:46;20.20;99.90
21592;DHT22;10958;50.892;3.992;2023-08-20T04:24:12;20.10;99.90
21592;DHT22;10958;50.892;3.992;2023-08-20T04:26:38;20.10;99.90
21592;DHT22;10958;50.892;3.992;2023-08-20T04:29:03;20.20;99.90
21592;DHT22;10958;50.892;3.992;2023-08-20T04:31:30;20.10;99.90
21592;DHT22;10958;50.892;3.992;2023-08-20T04:33:58;20.10;99.90
21592;DHT22;10958;50.892;3.992;2023-08-20T04:36:26;20.30;99.90
21592;DHT22;10958;50.892;3.992;2023-08-20T04:38:53;20.40;99.90
21592;DHT22;10958;50.892;3.992;2023-08-20T04:41:18;20.40;99.90
21592;DHT22;10958;50.892;3.992;2023-08-20T04:43:44;20.20;99.90
21592;DHT22;10958;50.892;3.992;2023-08-20T04:46:10;20.00;99.90
21592;DHT22;10958;50.892;3.992;2023-08-20T04:48:36;19.70;99.90
21592;DHT22;10958;50.892;3.992;2023-08-20T04:51:02;19.80;99.90
21592;DHT22;10958;50.892;3.992;2023-08-20T04:53:29;19.90;99.90
21592;DHT22;10958;50.892;3.992;2023-08-20T04:55:58;20.00;99.90
21592;DHT22;10958;50.892;3.992;2023-08-20T04:58:24;20.10;99.90
21592;DHT22;10958;50.892;3.992;2023-08-20T05:00:50;20.30;99.90
21592;DHT22;10958;50.892;3.992;2023-08-20T05:03:16;19.90;99.90
21592;DHT22;10958;50.892;3.992;2023-08-20T05:05:42;19.60;99.90
21592;DHT22;10958;50.892;3.992;2023-08-20T05:08:08;19.40;99.90
21592;DHT22;10958;50.892;3.992;2023-08-20T05:10:36;19.50;99.90
21592;DHT22;10958;50.892;3.992;2023-08-20T05:13:05;19.70;99.90
21592;DHT22;10958;50.892;3.992;2023-08-20T05:15:31;19.90;99.90
21592;DHT22;10958;50.892;3.992;2023-08-20T05:17:57;19.90;99.90
21592;DHT22;10958;50.892;3.992;2023-08-20T05:20:22;19.90;99.90
21592;DHT22;10958;50.892;3.992;2023-08-20T05:22:48;19.90;99.90
21592;DHT22;10958;50.892;3.992;2023-08-20T05:25:14;19.90;99.90
21592;DHT22;10958;50.892;3.992;2023-08-20T05:27:40;19.90;99.90
21592;DHT22;10958;50.892;3.992;2023-08-20T05:30:06;19.90;99.90
21592;DHT22;10958;50.892;3.992;2023-08-20T05:32:36;20.00;99.90
21592;DHT22;10958;50.892;3.992;2023-08-20T05:35:01;20.00;99.90
21592;DHT22;10958;50.892;3.992;2023-08-20T05:37:29;20.00;99.90
21592;DHT22;10958;50.892;3.992;2023-08-20T05:39:55;20.00;99.90
21592;DHT22;10958;50.892;3.992;2023-08-20T05:42:23;20.10;99.90
21592;DHT22;10958;50.892;3.992;2023-08-20T05:44:49;20.00;99.90
21592;DHT22;10958;50.892;3.992;2023-08-20T05:47:15;19.90;99.90
21592;DHT22;10958;50.892;3.992;2023-08-20T05:49:40;19.90;99.90
21592;DHT22;10958;50.892;3.992;2023-08-20T05:52:11;19.90;99.90
21592;DHT22;10958;50.892;3.992;2023-08-20T05:54:37;20.10;99.90
21592;DHT22;10958;50.892;3.992;2023-08-20T05:57:03;20.20;99.90
21592;DHT22;10958;50.892;3.992;2023-08-20T05:59:29;20.30;99.90
21592;DHT22;10958;50.892;3.992;2023-08-20T06:01:55;20.40;99.90
21592;DHT22;10958;50.892;3.992;2023-08-20T06:04:21;20.50;99.90
21592;DHT22;10958;50.892;3.992;2023-08-20T06:06:47;20.60;99.90
21592;DHT22;10958;50.892;3.992;2023-08-20T06:09:13;20.60;99.90
21592;DHT22;10958;50.892;3.992;2023-08-20T06:11:41;20.80;99.90
21592;DHT22;10958;50.892;3.992;2023-08-20T06:14:07;20.90;99.90
21592;DHT22;10958;50.892;3.992;2023-08-20T06:16:36;21.10;99.90
21592;DHT22;10958;50.892;3.992;2023-08-20T06:19:01;21.30;99.90
21592;DHT22;10958;50.892;3.992;2023-08-20T06:21:28;21.60;99.90
21592;DHT22;10958;50.892;3.992;2023-08-20T06:23:53;22.20;99.90
21592;DHT22;10958;50.892;3.992;2023-08-20T06:26:19;23.50;99.90
21592;DHT22;10958;50.892;3.992;2023-08-20T06:28:46;24.60;99.90
21592;DHT22;10958;50.892;3.992;2023-08-20T06:31:12;24.70;99.90
21592;DHT22;10958;50.892;3.992;2023-08-20T06:33:37;24.50;99.90
21592;DHT22;10958;50.892;3.992;2023-08-20T06:36:03;24.10;99.90
21592;DHT22;10958;50.892;3.992;2023-08-20T06:38:29;24.00;99.90
21592;DHT22;10958;50.892;3.992;2023-08-20T06:40:56;23.60;99.90
21592;DHT22;10958;50.892;3.992;2023-08-20T06:43:22;23.70;99.90
21592;DHT22;10958;50.892;3.992;2023-08-20T06:45:48;23.60;99.90
21592;DHT22;10958;50.892;3.992;2023-08-20T06:48:14;23.50;99.90
21592;DHT22;10958;50.892;3.992;2023-08-20T06:50:42;23.60;99.90
21592;DHT22;10958;50.892;3.992;2023-08-20T06:53:08;24.30;99.90
21592;DHT22;10958;50.892;3.992;2023-08-20T06:55:36;25.40;99.90
21592;DHT22;10958;50.892;3.992;2023-08-20T06:58:03;26.90;99.90
21592;DHT22;10958;50.892;3.992;2023-08-20T07:00:29;27.60;99.90
21592;DHT22;10958;50.892;3.992;2023-08-20T07:02:57;28.30;99.90
21592;DHT22;10958;50.892;3.992;2023-08-20T07:05:23;29.20;99.90
21592;DHT22;10958;50.892;3.992;2023-08-20T07:07:49;29.10;99.90
21592;DHT22;10958;50.892;3.992;2023-08-20T07:10:14;29.20;99.90
21592;DHT22;10958;50.892;3.992;2023-08-20T07:12:40;29.40;99.90
21592;DHT22;10958;50.892;3.992;2023-08-20T07:15:07;29.30;99.90
21592;DHT22;10958;50.892;3.992;2023-08-20T07:17:32;29.70;99.90
21592;DHT22;10958;50.892;3.992;2023-08-20T07:20:00;30.10;99.90
21592;DHT22;10958;50.892;3.992;2023-08-20T07:22:26;30.30;99.90
21592;DHT22;10958;50.892;3.992;2023-08-20T07:24:52;30.80;99.90
21592;DHT22;10958;50.892;3.992;2023-08-20T07:27:20;30.70;99.90
21592;DHT22;10958;50.892;3.992;2023-08-20T07:29:46;30.30;99.90
21592;DHT22;10958;50.892;3.992;2023-08-20T07:32:11;30.50;99.90
21592;DHT22;10958;50.892;3.992;2023-08-20T07:34:38;29.80;99.90
21592;DHT22;10958;50.892;3.992;2023-08-20T07:37:04;29.60;99.90
21592;DHT22;10958;50.892;3.992;2023-08-20T07:39:31;30.30;99.90
21592;DHT22;10958;50.892;3.992;2023-08-20T07:41:56;31.20;99.90
21592;DHT22;10958;50.892;3.992;2023-08-20T07:44:22;30.20;99.90
21592;DHT22;10958;50.892;3.992;2023-08-20T07:46:49;30.30;99.90
21592;DHT22;10958;50.892;3.992;2023-08-20T07:49:17;30.70;99.90
21592;DHT22;10958;50.892;3.992;2023-08-20T07:51:45;31.40;99.90
21592;DHT22;10958;50.892;3.992;2023-08-20T07:54:12;30.70;99.90
21592;DHT22;10958;50.892;3.992;2023-08-20T07:56:38;30.10;99.90
21592;DHT22;10958;50.892;3.992;2023-08-20T07:59:04;30.30;99.90
21592;DHT22;10958;50.892;3.992;2023-08-20T08:01:30;30.70;99.90
21592;DHT22;10958;50.892;3.992;2023-08-20T08:03:56;31.70;99.90
21592;DHT22;10958;50.892;3.992;2023-08-20T08:06:22;32.50;99.90
21592;DHT22;10958;50.892;3.992;2023-08-20T08:08:49;33.10;99.90
21592;DHT22;10958;50.892;3.992;2023-08-20T08:11:15;33.10;99.90
21592;DHT22;10958;50.892;3.992;2023-08-20T08:13:41;31.90;99.90
21592;DHT22;10958;50.892;3.992;2023-08-20T08:16:07;31.50;99.90
21592;DHT22;10958;50.892;3.992;2023-08-20T08:18:35;30.80;99.90
21592;DHT22;10958;50.892;3.992;2023-08-20T08:21:01;32.10;99.90
21592;DHT22;10958;50.892;3.992;2023-08-20T08:23:29;33.00;99.90
21592;DHT22;10958;50.892;3.992;2023-08-20T08:25:55;33.80;99.90
21592;DHT22;10958;50.892;3.992;2023-08-20T08:28:23;33.90;99.90
21592;DHT22;10958;50.892;3.992;2023-08-20T08:30:49;34.20;99.90
21592;DHT22;10958;50.892;3.992;2023-08-20T08:33:18;34.20;99.90
21592;DHT22;10958;50.892;3.992;2023-08-20T08:35:44;34.60;99.90
21592;DHT22;10958;50.892;3.992;2023-08-20T08:38:13;34.80;99.90
21592;DHT22;10958;50.892;3.992;2023-08-20T08:40:40;34.30;99.90
21592;DHT22;10958;50.892;3.992;2023-08-20T08:43:06;34.20;99.90
21592;DHT22;10958;50.892;3.992;2023-08-20T08:45:32;34.10;99.90
21592;DHT22;10958;50.892;3.992;2023-08-20T08:47:58;34.10;99.90
21592;DHT22;10958;50.892;3.992;2023-08-20T08:50:24;34.00;99.90
21592;DHT22;10958;50.892;3.992;2023-08-20T08:52:51;33.70;99.90
21592;DHT22;10958;50.892;3.992;2023-08-20T08:55:20;34.10;99.90
21592;DHT22;10958;50.892;3.992;2023-08-20T08:57:49;34.70;99.90
21592;DHT22;10958;50.892;3.992;2023-08-20T09:00:26;35.10;99.90
21592;DHT22;10958;50.892;3.992;2023-08-20T09:02:58;33.70;99.90
21592;DHT22;10958;50.892;3.992;2023-08-20T09:05:25;33.70;99.90
21592;DHT22;10958;50.892;3.992;2023-08-20T09:07:56;33.60;99.90
21592;DHT22;10958;50.892;3.992;2023-08-20T09:10:26;32.60;99.90
21592;DHT22;10958;50.892;3.992;2023-08-20T09:12:54;32.40;99.90
21592;DHT22;10958;50.892;3.992;2023-08-20T09:15:21;32.10;99.90
21592;DHT22;10958;50.892;3.992;2023-08-20T09:17:47;33.30;99.90
21592;DHT22;10958;50.892;3.992;2023-08-20T09:20:13;34.20;99.90
21592;DHT22;10958;50.892;3.992;2023-08-20T09:22:48;32.60;99.90
21592;DHT22;10958;50.892;3.992;2023-08-20T09:25:15;33.60;99.90
21592;DHT22;10958;50.892;3.992;2023-08-20T09:27:44;33.10;99.90
21592;DHT22;10958;50.892;3.992;2023-08-20T09:30:17;32.40;99.90
21592;DHT22;10958;50.892;3.992;2023-08-20T09:32:44;31.40;99.90
21592;DHT22;10958;50.892;3.992;2023-08-20T09:35:18;32.60;99.90
21592;DHT22;10958;50.892;3.992;2023-08-20T09:37:44;32.20;99.90
21592;DHT22;10958;50.892;3.992;2023-08-20T09:40:10;33.50;99.90
21592;DHT22;10958;50.892;3.992;2023-08-20T09:42:37;33.90;99.90
21592;DHT22;10958;50.892;3.992;2023-08-20T09:45:03;34.50;99.90
21592;DHT22;10958;50.892;3.992;2023-08-20T09:47:33;34.40;99.90
21592;DHT22;10958;50.892;3.992;2023-08-20T09:50:01;34.20;99.90
21592;DHT22;10958;50.892;3.992;2023-08-20T09:52:32;34.60;99.90
21592;DHT22;10958;50.892;3.992;2023-08-20T09:55:08;32.70;99.90
21592;DHT22;10958;50.892;3.992;2023-08-20T09:57:39;33.20;99.90
21592;DHT22;10958;50.892;3.992;2023-08-20T10:03:33;33.90;99.90
21592;DHT22;10958;50.892;3.992;2023-08-20T10:06:00;34.30;99.90
21592;DHT22;10958;50.892;3.992;2023-08-20T10:08:27;34.20;99.90
21592;DHT22;10958;50.892;3.992;2023-08-20T10:10:55;32.90;99.90
21592;DHT22;10958;50.892;3.992;2023-08-20T10:13:44;33.00;99.90
21592;DHT22;10958;50.892;3.992;2023-08-20T10:16:13;33.70;99.90
21592;DHT22;10958;50.892;3.992;2023-08-20T10:18:39;33.10;99.90
21592;DHT22;10958;50.892;3.992;2023-08-20T10:21:08;32.20;99.90
21592;DHT22;10958;50.892;3.992;2023-08-20T10:23:35;32.90;99.90
21592;DHT22;10958;50.892;3.992;2023-08-20T10:26:08;31.90;99.90
21592;DHT22;10958;50.892;3.992;2023-08-20T10:28:37;32.30;99.90
21592;DHT22;10958;50.892;3.992;2023-08-20T10:31:07;33.00;99.90
21592;DHT22;10958;50.892;3.992;2023-08-20T10:33:38;32.40;99.90
21592;DHT22;10958;50.892;3.992;2023-08-20T10:38:58;30.80;99.90
21592;DHT22;10958;50.892;3.992;2023-08-20T10:41:49;30.70;99.90
21592;DHT22;10958;50.892;3.992;2023-08-20T10:45:01;30.30;99.90
21592;DHT22;10958;50.892;3.992;2023-08-20T10:47:42;30.50;99.90
21592;DHT22;10958;50.892;3.992;2023-08-20T10:50:09;30.00;99.90
21592;DHT22;10958;50.892;3.992;2023-08-20T10:52:46;30.20;99.90
21592;DHT22;10958;50.892;3.992;2023-08-20T10:55:13;29.80;99.90
21592;DHT22;10958;50.892;3.992;2023-08-20T10:57:40;29.50;99.90
21592;DHT22;10958;50.892;3.992;2023-08-20T11:02:51;29.40;99.90
21592;DHT22;10958;50.892;3.992;2023-08-20T11:05:29;29.50;99.90
21592;DHT22;10958;50.892;3.992;2023-08-20T11:08:02;29.80;99.90
21592;DHT22;10958;50.892;3.992;2023-08-20T11:14:05;30.00;99.90
21592;DHT22;10958;50.892;3.992;2023-08-20T11:16:34;29.50;99.90
21592;DHT22;10958;50.892;3.992;2023-08-20T11:19:07;29.20;99.90
21592;DHT22;10958;50.892;3.992;2023-08-20T11:21:56;29.30;99.90
21592;DHT22;10958;50.892;3.992;2023-08-20T11:24:35;29.10;99.90
21592;DHT22;10958;50.892;3.992;2023-08-20T11:27:17;29.10;99.90
21592;DHT22;10958;50.892;3.992;2023-08-20T11:29:46;29.30;99.90
21592;DHT22;10958;50.892;3.992;2023-08-20T11:32:12;29.30;99.90
21592;DHT22;10958;50.892;3.992;2023-08-20T11:34:39;29.30;99.90
21592;DHT22;10958;50.892;3.992;2023-08-20T11:37:06;29.10;99.90
21592;DHT22;10958;50.892;3.992;2023-08-20T11:39:36;29.10;99.90
21592;DHT22;10958;50.892;3.992;2023-08-20T11:42:10;29.20;99.90
21592;DHT22;10958;50.892;3.992;2023-08-20T11:44:48;28.70;99.90
21592;DHT22;10958;50.892;3.992;2023-08-20T11:48:08;28.50;99.90
21592;DHT22;10958;50.892;3.992;2023-08-20T11:51:04;29.20;99.90
21592;DHT22;10958;50.892;3.992;2023-08-20T11:53:47;29.20;99.90
21592;DHT22;10958;50.892;3.992;2023-08-20T11:56:24;28.90;99.90
21592;DHT22;10958;50.892;3.992;2023-08-20T11:58:52;29.20;99.90
21592;DHT22;10958;50.892;3.992;2023-08-20T12:01:18;29.50;99.90
21592;DHT22;10958;50.892;3.992;2023-08-20T12:03:47;29.60;99.90
21592;DHT22;10958;50.892;3.992;2023-08-20T12:06:20;29.80;99.90
21592;DHT22;10958;50.892;3.992;2023-08-20T12:08:48;29.80;99.90
21592;DHT22;10958;50.892;3.992;2023-08-20T12:11:14;29.90;99.90
21592;DHT22;10958;50.892;3.992;2023-08-20T12:13:40;30.00;99.90
21592;DHT22;10958;50.892;3.992;2023-08-20T12:16:08;29.60;99.90
21592;DHT22;10958;50.892;3.992;2023-08-20T12:18:37;29.40;99.90
21592;DHT22;10958;50.892;3.992;2023-08-20T12:21:05;29.30;99.90
21592;DHT22;10958;50.892;3.992;2023-08-20T12:23:31;29.20;99.90
21592;DHT22;10958;50.892;3.992;2023-08-20T12:25:59;29.00;99.90
21592;DHT22;10958;50.892;3.992;2023-08-20T12:28:27;29.30;99.90
21592;DHT22;10958;50.892;3.992;2023-08-20T12:30:58;29.10;99.90
21592;DHT22;10958;50.892;3.992;2023-08-20T12:33:24;29.10;99.90
21592;DHT22;10958;50.892;3.992;2023-08-20T12:35:49;29.00;99.90
21592;DHT22;10958;50.892;3.992;2023-08-20T12:38:15;29.30;99.90
21592;DHT22;10958;50.892;3.992;2023-08-20T12:40:41;29.30;99.90
21592;DHT22;10958;50.892;3.992;2023-08-20T12:43:09;29.20;99.90
21592;DHT22;10958;50.892;3.992;2023-08-20T12:45:37;29.10;99.90
21592;DHT22;10958;50.892;3.992;2023-08-20T12:48:04;29.20;99.90
21592;DHT22;10958;50.892;3.992;2023-08-20T12:50:30;29.50;99.90
21592;DHT22;10958;50.892;3.992;2023-08-20T12:52:56;29.80;99.90
21592;DHT22;10958;50.892;3.992;2023-08-20T12:55:25;29.90;99.90
21592;DHT22;10958;50.892;3.992;2023-08-20T12:57:56;30.20;99.90
21592;DHT22;10958;50.892;3.992;2023-08-20T13:00:23;30.50;99.90
21592;DHT22;10958;50.892;3.992;2023-08-20T13:02:56;30.60;99.90
21592;DHT22;10958;50.892;3.992;2023-08-20T13:05:23;30.80;99.90
21592;DHT22;10958;50.892;3.992;2023-08-20T13:07:51;30.90;99.90
21592;DHT22;10958;50.892;3.992;2023-08-20T13:10:17;30.80;99.90
21592;DHT22;10958;50.892;3.992;2023-08-20T13:12:51;30.80;99.90
21592;DHT22;10958;50.892;3.992;2023-08-20T13:15:22;30.60;99.90
21592;DHT22;10958;50.892;3.992;2023-08-20T13:17:53;30.50;99.90
21592;DHT22;10958;50.892;3.992;2023-08-20T13:20:33;31.00;99.90
21592;DHT22;10958;50.892;3.992;2023-08-20T13:23:05;31.00;99.90
21592;DHT22;10958;50.892;3.992;2023-08-20T13:25:40;31.00;99.90
21592;DHT22;10958;50.892;3.992;2023-08-20T13:28:15;30.70;99.90
21592;DHT22;10958;50.892;3.992;2023-08-20T13:31:03;30.40;99.90
21592;DHT22;10958;50.892;3.992;2023-08-20T13:33:50;30.80;99.90
21592;DHT22;10958;50.892;3.992;2023-08-20T13:36:37;30.90;99.90
21592;DHT22;10958;50.892;3.992;2023-08-20T13:39:03;30.90;99.90
21592;DHT22;10958;50.892;3.992;2023-08-20T13:41:29;30.70;99.90
21592;DHT22;10958;50.892;3.992;2023-08-20T13:43:55;30.60;99.90
21592;DHT22;10958;50.892;3.992;2023-08-20T13:46:28;30.80;99.90
21592;DHT22;10958;50.892;3.992;2023-08-20T13:49:00;30.70;99.90
21592;DHT22;10958;50.892;3.992;2023-08-20T13:51:48;30.40;99.90
21592;DHT22;10958;50.892;3.992;2023-08-20T13:54:26;30.30;99.90
21592;DHT22;10958;50.892;3.992;2023-08-20T13:57:03;30.60;99.90
21592;DHT22;10958;50.892;3.992;2023-08-20T13:59:51;31.00;99.90
21592;DHT22;10958;50.892;3.992;2023-08-20T14:02:38;31.40;99.90
21592;DHT22;10958;50.892;3.992;2023-08-20T14:05:35;30.90;99.90
21592;DHT22;10958;50.892;3.992;2023-08-20T14:08:05;31.20;99.90
21592;DHT22;10958;50.892;3.992;2023-08-20T14:10:49;31.30;99.90
21592;DHT22;10958;50.892;3.992;2023-08-20T14:13:18;31.30;99.90
21592;DHT22;10958;50.892;3.992;2023-08-20T14:16:25;30.60;99.90
21592;DHT22;10958;50.892;3.992;2023-08-20T14:19:18;29.90;99.90
21592;DHT22;10958;50.892;3.992;2023-08-20T14:22:01;29.50;99.90
21592;DHT22;10958;50.892;3.992;2023-08-20T14:24:45;29.40;99.90
21592;DHT22;10958;50.892;3.992;2023-08-20T14:27:31;29.50;99.90
21592;DHT22;10958;50.892;3.992;2023-08-20T14:30:25;29.60;99.90
21592;DHT22;10958;50.892;3.992;2023-08-20T14:33:20;29.70;99.90
21592;DHT22;10958;50.892;3.992;2023-08-20T14:35:56;29.90;99.90
21592;DHT22;10958;50.892;3.992;2023-08-20T14:44:44;29.90;99.90
21592;DHT22;10958;50.892;3.992;2023-08-20T14:47:26;30.10;99.90
21592;DHT22;10958;50.892;3.992;2023-08-20T14:50:01;29.90;99.90
21592;DHT22;10958;50.892;3.992;2023-08-20T14:52:37;29.70;99.90
21592;DHT22;10958;50.892;3.992;2023-08-20T14:55:05;29.40;99.90
21592;DHT22;10958;50.892;3.992;2023-08-20T14:57:33;29.30;99.90
21592;DHT22;10958;50.892;3.992;2023-08-20T14:59:59;29.50;99.90
21592;DHT22;10958;50.892;3.992;2023-08-20T15:02:25;29.30;99.90
21592;DHT22;10958;50.892;3.992;2023-08-20T15:04:51;29.50;99.90
21592;DHT22;10958;50.892;3.992;2023-08-20T15:07:17;29.50;99.90
21592;DHT22;10958;50.892;3.992;2023-08-20T15:09:52;29.70;99.90
21592;DHT22;10958;50.892;3.992;2023-08-20T15:15:32;29.70;99.90
21592;DHT22;10958;50.892;3.992;2023-08-20T15:18:11;29.70;99.90
21592;DHT22;10958;50.892;3.992;2023-08-20T15:21:07;30.00;99.90
21592;DHT22;10958;50.892;3.992;2023-08-20T15:23:33;29.90;99.90
21592;DHT22;10958;50.892;3.992;2023-08-20T15:25:59;29.60;99.90
21592;DHT22;10958;50.892;3.992;2023-08-20T15:28:25;29.60;99.90
21592;DHT22;10958;50.892;3.992;2023-08-20T15:30:56;29.70;99.90
21592;DHT22;10958;50.892;3.992;2023-08-20T15:33:23;29.40;99.90
21592;DHT22;10958;50.892;3.992;2023-08-20T15:35:51;29.30;99.90
21592;DHT22;10958;50.892;3.992;2023-08-20T15:38:22;29.00;99.90
21592;DHT22;10958;50.892;3.992;2023-08-20T15:40:48;29.00;99.90
21592;DHT22;10958;50.892;3.992;2023-08-20T15:43:16;29.00;99.90
21592;DHT22;10958;50.892;3.992;2023-08-20T15:45:49;28.90;99.90
21592;DHT22;10958;50.892;3.992;2023-08-20T15:48:30;28.90;99.90
21592;DHT22;10958;50.892;3.992;2023-08-20T15:57:35;28.60;99.90
21592;DHT22;10958;50.892;3.992;2023-08-20T16:00:40;28.40;99.90
21592;DHT22;10958;50.892;3.992;2023-08-20T16:03:05;28.20;99.90
21592;DHT22;10958;50.892;3.992;2023-08-20T16:05:46;28.20;99.90
21592;DHT22;10958;50.892;3.992;2023-08-20T16:12:16;28.10;99.90
21592;DHT22;10958;50.892;3.992;2023-08-20T16:14:59;27.90;99.90
21592;DHT22;10958;50.892;3.992;2023-08-20T16:21:38;28.00;99.90
21592;DHT22;10958;50.892;3.992;2023-08-20T16:27:47;28.00;99.90
21592;DHT22;10958;50.892;3.992;2023-08-20T16:30:31;27.90;99.90
21592;DHT22;10958;50.892;3.992;2023-08-20T16:33:09;27.70;99.90
21592;DHT22;10958;50.892;3.992;2023-08-20T16:35:36;27.80;99.90
21592;DHT22;10958;50.892;3.992;2023-08-20T16:38:02;27.90;99.90
21592;DHT22;10958;50.892;3.992;2023-08-20T16:40:31;27.70;99.90